createdAt,value
2023-02-18T00:02:10.907Z,13.30
2023-02-18T00:04:43.945Z,13.20
2023-02-18T00:07:16.827Z,13.20
2023-02-18T00:09:51.093Z,13.20
2023-02-18T00:12:23.906Z,13.20
2023-02-18T00:14:56.705Z,13.20
2023-02-18T00:17:30.650Z,13.10
2023-02-18T00:20:04.486Z,13.10
2023-02-18T00:22:38.594Z,13.10
2023-02-18T00:25:11.439Z,13.10
2023-02-18T00:27:44.168Z,13.10
2023-02-18T00:30:17.038Z,13.10
2023-02-18T00:32:49.831Z,13.10
2023-02-18T00:35:22.941Z,13.00
2023-02-18T00:37:56.076Z,13.00
2023-02-18T00:40:28.772Z,13.10
2023-02-18T00:43:01.629Z,13.00
2023-02-18T00:45:34.391Z,13.00
2023-02-18T00:48:07.132Z,13.00
2023-02-18T00:50:40.847Z,13.00
2023-02-18T00:53:14.041Z,13.00
2023-02-18T00:55:50.325Z,12.90
2023-02-18T00:58:23.359Z,12.90
2023-02-18T01:00:56.423Z,12.90
2023-02-18T01:03:29.184Z,12.90
2023-02-18T01:06:03.590Z,12.90
2023-02-18T01:08:39.433Z,12.90
2023-02-18T01:11:13.847Z,12.80
2023-02-18T01:13:46.598Z,12.80
2023-02-18T01:16:19.584Z,12.80
2023-02-18T01:18:52.386Z,12.80
2023-02-18T01:21:25.132Z,12.70
2023-02-18T01:23:59.650Z,12.70
2023-02-18T01:26:32.486Z,12.70
2023-02-18T01:29:05.184Z,12.70
2023-02-18T01:31:38.027Z,12.70
2023-02-18T01:34:10.659Z,12.70
2023-02-18T01:36:43.460Z,12.60
2023-02-18T01:39:16.247Z,12.60
2023-02-18T01:41:48.952Z,12.60
2023-02-18T01:44:26.838Z,12.60
2023-02-18T01:46:59.647Z,12.60
2023-02-18T01:49:36.490Z,12.60
2023-02-18T01:52:15.767Z,12.60
2023-02-18T01:54:56.946Z,12.60
2023-02-18T01:57:38.372Z,12.60
2023-02-18T02:00:17.326Z,12.50
2023-02-18T02:02:53.773Z,12.60
2023-02-18T02:05:32.774Z,12.50
2023-02-18T02:08:06.532Z,12.50
2023-02-18T02:11:05.005Z,12.50
2023-02-18T02:13:45.338Z,12.50
2023-02-18T02:16:37.286Z,12.50
2023-02-18T02:19:33.332Z,12.50
2023-02-18T02:22:26.656Z,12.50
2023-02-18T02:25:23.548Z,12.50
2023-02-18T02:28:30.804Z,12.40
2023-02-18T02:31:32.577Z,12.40
2023-02-18T02:34:23.553Z,12.40
2023-02-18T02:37:16.652Z,12.40
2023-02-18T02:40:16.252Z,12.40
2023-02-18T02:43:13.362Z,12.40
2023-02-18T02:46:14.645Z,12.40
2023-02-18T02:49:05.120Z,12.40
2023-02-18T02:51:48.513Z,12.40
2023-02-18T02:54:23.002Z,12.40
2023-02-18T02:57:14.517Z,12.40
2023-02-18T03:00:06.019Z,12.40
2023-02-18T03:03:00.726Z,12.40
2023-02-18T03:06:00.534Z,12.40
2023-02-18T03:08:33.187Z,12.40
2023-02-18T03:11:11.203Z,12.40
2023-02-18T03:14:05.582Z,12.40
2023-02-18T03:16:54.098Z,12.40
2023-02-18T03:19:38.159Z,12.40
2023-02-18T03:22:19.224Z,12.40
2023-02-18T03:24:54.646Z,12.40
2023-02-18T03:27:46.586Z,12.40
2023-02-18T03:30:33.236Z,12.40
2023-02-18T03:33:09.829Z,12.40
2023-02-18T03:35:44.620Z,12.40
2023-02-18T03:38:43.217Z,12.40
2023-02-18T03:41:16.345Z,12.40
2023-02-18T03:43:53.354Z,12.40
2023-02-18T03:46:27.160Z,12.40
2023-02-18T03:49:00.281Z,12.40
2023-02-18T03:51:33.756Z,12.40
2023-02-18T03:54:06.786Z,12.40
2023-02-18T03:56:39.666Z,12.40
2023-02-18T03:59:14.305Z,12.40
2023-02-18T04:04:43.683Z,12.40
2023-02-18T04:07:16.480Z,12.30
2023-02-18T04:09:49.315Z,12.30
2023-02-18T04:12:24.173Z,12.30
2023-02-18T04:14:56.974Z,12.30
2023-02-18T04:17:29.637Z,12.30
2023-02-18T04:20:03.685Z,12.30
2023-02-18T04:22:36.640Z,12.30
2023-02-18T04:25:09.440Z,12.30
2023-02-18T04:27:42.097Z,12.30
2023-02-18T04:30:16.775Z,12.30
2023-02-18T04:32:51.165Z,12.30
2023-02-18T04:35:24.830Z,12.30
2023-02-18T04:37:57.459Z,12.30
2023-02-18T04:40:31.027Z,12.30
2023-02-18T04:43:04.377Z,12.30
2023-02-18T04:46:01.973Z,12.30
2023-02-18T04:48:35.378Z,12.30
2023-02-18T04:51:08.248Z,12.30
2023-02-18T04:53:41.178Z,12.30
2023-02-18T04:56:14.067Z,12.30
2023-02-18T04:58:47.021Z,12.30
2023-02-18T05:01:21.216Z,12.30
2023-02-18T05:03:54.121Z,12.30
2023-02-18T05:06:27.122Z,12.30
2023-02-18T05:08:59.882Z,12.30
2023-02-18T05:11:32.698Z,12.30
2023-02-18T05:14:05.563Z,12.30
2023-02-18T05:16:38.586Z,12.30
2023-02-18T05:19:17.889Z,12.30
2023-02-18T05:21:50.768Z,12.30
2023-02-18T05:24:24.552Z,12.30
2023-02-18T05:26:57.158Z,12.30
2023-02-18T05:29:29.791Z,12.20
2023-02-18T05:32:02.390Z,12.30
2023-02-18T05:34:35.263Z,12.20
2023-02-18T05:37:08.689Z,12.20
2023-02-18T05:39:42.176Z,12.20
2023-02-18T05:42:15.057Z,12.20
2023-02-18T05:44:47.803Z,12.20
2023-02-18T05:47:22.704Z,12.20
2023-02-18T05:49:56.563Z,12.20
2023-02-18T05:52:29.367Z,12.20
2023-02-18T05:55:03.365Z,12.20
2023-02-18T05:57:36.238Z,12.20
2023-02-18T06:00:10.506Z,12.20
2023-02-18T06:02:43.491Z,12.20
2023-02-18T06:05:17.444Z,12.20
2023-02-18T06:07:50.133Z,12.30
2023-02-18T06:10:50.158Z,12.30
2023-02-18T06:13:22.944Z,12.40
2023-02-18T06:15:55.713Z,12.50
2023-02-18T06:18:29.840Z,12.70
2023-02-18T06:21:03.181Z,12.80
2023-02-18T06:23:35.632Z,13.00
2023-02-18T06:26:09.242Z,13.10
2023-02-18T06:29:07.390Z,13.20
2023-02-18T06:31:40.861Z,13.30
2023-02-18T06:34:13.431Z,13.40
2023-02-18T06:36:46.252Z,13.50
2023-02-18T06:39:29.444Z,13.70
2023-02-18T06:42:02.542Z,13.80
2023-02-18T06:44:44.594Z,14.00
2023-02-18T06:50:28.938Z,13.90
2023-02-18T06:53:12.093Z,13.80
2023-02-18T06:55:47.966Z,13.90
2023-02-18T06:58:28.632Z,13.90
2023-02-18T07:01:14.360Z,14.00
2023-02-18T07:03:54.508Z,14.20
2023-02-18T07:06:35.426Z,14.40
2023-02-18T07:09:38.862Z,14.60
2023-02-18T07:12:31.937Z,14.80
2023-02-18T07:15:07.758Z,14.90
2023-02-18T07:17:40.593Z,15.00
2023-02-18T07:20:13.557Z,15.10
2023-02-18T07:22:46.446Z,15.20
2023-02-18T07:25:20.925Z,15.20
2023-02-18T07:27:54.780Z,15.30
2023-02-18T07:30:27.595Z,15.30
2023-02-18T07:33:02.966Z,15.40
2023-02-18T07:35:37.843Z,15.50
2023-02-18T07:38:11.674Z,15.60
2023-02-18T07:40:46.280Z,15.70
2023-02-18T07:43:19.354Z,15.70
2023-02-18T07:45:55.494Z,15.80
2023-02-18T07:48:28.315Z,15.90
2023-02-18T07:51:01.002Z,16.00
2023-02-18T07:53:33.941Z,16.00
2023-02-18T07:56:07.432Z,16.10
2023-02-18T07:58:43.544Z,16.20
2023-02-18T08:01:17.175Z,16.30
2023-02-18T08:03:50.004Z,16.30
2023-02-18T08:06:30.229Z,16.30
2023-02-18T08:09:10.629Z,16.30
2023-02-18T08:11:43.958Z,16.50
2023-02-18T08:14:16.803Z,16.50
2023-02-18T08:16:49.650Z,16.60
2023-02-18T08:19:22.318Z,16.60
2023-02-18T08:21:55.040Z,16.70
2023-02-18T08:24:27.737Z,16.80
2023-02-18T08:27:01.663Z,16.90
2023-02-18T08:29:35.573Z,16.90
2023-02-18T08:32:08.364Z,17.00
2023-02-18T08:34:41.249Z,17.00
2023-02-18T08:37:14.167Z,17.10
2023-02-18T08:39:48.184Z,17.10
2023-02-18T08:45:17.392Z,17.20
2023-02-18T08:48:16.115Z,17.20
2023-02-18T08:50:42.871Z,17.30
2023-02-18T08:53:16.020Z,17.30
2023-02-18T08:55:49.987Z,17.40
2023-02-18T08:58:22.736Z,17.40
2023-02-18T09:00:55.387Z,17.50
2023-02-18T09:03:29.298Z,17.50
2023-02-18T09:06:03.817Z,17.50
2023-02-18T09:08:36.596Z,17.50
2023-02-18T09:11:11.306Z,17.50
2023-02-18T09:13:46.101Z,17.50
2023-02-18T09:16:19.528Z,17.60
2023-02-18T09:18:52.529Z,17.60
2023-02-18T09:21:26.538Z,17.60
2023-02-18T09:23:59.496Z,17.60
2023-02-18T09:26:32.251Z,17.60
2023-02-18T09:29:06.294Z,17.70
2023-02-18T09:31:39.820Z,17.70
2023-02-18T09:34:37.293Z,17.70
2023-02-18T09:37:10.037Z,17.70
2023-02-18T09:39:44.276Z,17.80
2023-02-18T09:42:28.747Z,17.80
2023-02-18T09:45:08.762Z,17.80
2023-02-18T09:47:43.660Z,17.80
2023-02-18T09:50:27.252Z,17.80
2023-02-18T09:53:02.817Z,17.80
2023-02-18T09:55:42.042Z,17.80
2023-02-18T09:58:17.991Z,17.80
2023-02-18T10:01:07.424Z,17.80
2023-02-18T10:03:41.000Z,17.80
2023-02-18T10:06:21.687Z,17.80
2023-02-18T10:08:56.149Z,17.80
2023-02-18T10:11:32.301Z,17.70
2023-02-18T10:14:14.511Z,17.70
2023-02-18T10:16:50.059Z,17.60
2023-02-18T10:19:43.597Z,17.60
2023-02-18T10:22:17.814Z,17.40
2023-02-18T10:24:51.998Z,17.40
2023-02-18T10:27:29.329Z,17.40
2023-02-18T10:30:26.353Z,17.30
2023-02-18T10:33:22.810Z,17.30
2023-02-18T10:36:07.152Z,17.20
2023-02-18T10:39:05.452Z,17.20
2023-02-18T10:41:56.736Z,17.10
2023-02-18T10:44:44.058Z,17.10
2023-02-18T10:47:21.756Z,17.00
2023-02-18T10:50:09.128Z,16.90
2023-02-18T10:52:49.585Z,16.90
2023-02-18T10:55:44.908Z,16.90
2023-02-18T10:58:28.898Z,16.80
2023-02-18T11:01:08.849Z,16.80
2023-02-18T11:03:49.993Z,16.80
2023-02-18T11:06:47.239Z,16.70
2023-02-18T11:09:32.232Z,16.70
2023-02-18T11:12:14.362Z,16.60
2023-02-18T11:14:51.625Z,16.60
2023-02-18T11:17:31.973Z,16.60
2023-02-18T11:20:30.976Z,16.50
2023-02-18T11:23:06.896Z,16.50
2023-02-18T11:25:42.399Z,16.40
2023-02-18T11:28:20.826Z,16.30
2023-02-18T11:31:00.709Z,16.20
2023-02-18T11:33:39.504Z,16.10
2023-02-18T11:36:22.649Z,16.10
2023-02-18T11:38:59.125Z,16.00
2023-02-18T11:41:37.696Z,16.00
2023-02-18T11:44:23.063Z,16.00
2023-02-18T11:47:07.167Z,16.00
2023-02-18T11:49:41.509Z,16.00
2023-02-18T11:52:38.601Z,15.90
2023-02-18T11:55:30.734Z,15.90
2023-02-18T11:58:05.913Z,15.80
2023-02-18T12:00:47.332Z,15.80
2023-02-18T12:03:53.591Z,15.70
2023-02-18T12:06:59.110Z,15.60
2023-02-18T12:09:39.700Z,15.60
2023-02-18T12:12:17.255Z,15.50
2023-02-18T12:14:52.593Z,15.50
2023-02-18T12:17:30.651Z,15.50
2023-02-18T12:20:15.476Z,15.50
2023-02-18T12:23:03.543Z,15.60
2023-02-18T12:25:58.192Z,15.50
2023-02-18T12:28:45.907Z,15.60
2023-02-18T12:31:21.577Z,15.60
2023-02-18T12:34:14.506Z,15.50
2023-02-18T12:37:05.256Z,15.50
2023-02-18T12:40:02.986Z,15.50
2023-02-18T12:43:03.867Z,15.50
2023-02-18T12:46:13.252Z,15.40
2023-02-18T12:48:57.697Z,15.40
2023-02-18T12:51:49.625Z,15.40
2023-02-18T12:54:52.336Z,15.40
2023-02-18T12:57:39.797Z,15.40
2023-02-18T13:00:12.503Z,15.40
2023-02-18T13:03:05.295Z,15.40
2023-02-18T13:05:58.313Z,15.40
2023-02-18T13:08:57.912Z,15.40
2023-02-18T13:12:02.758Z,15.40
2023-02-18T13:14:46.873Z,15.40
2023-02-18T13:17:21.727Z,15.30
2023-02-18T13:20:03.273Z,15.30
2023-02-18T13:22:36.634Z,15.30
2023-02-18T13:25:14.170Z,15.30
2023-02-18T13:27:51.758Z,15.20
2023-02-18T13:30:52.613Z,15.20
2023-02-18T13:33:41.629Z,15.20
2023-02-18T13:36:32.082Z,15.30
2023-02-18T13:39:06.369Z,15.30
2023-02-18T13:41:42.973Z,15.20
2023-02-18T13:44:22.291Z,15.20
2023-02-18T13:46:57.927Z,15.20
2023-02-18T13:49:36.589Z,15.20
2023-02-18T13:52:20.927Z,15.20
2023-02-18T13:54:56.237Z,15.20
2023-02-18T13:57:30.128Z,15.20
2023-02-18T14:00:15.698Z,15.20
2023-02-18T14:03:19.475Z,15.10
2023-02-18T14:05:57.223Z,15.20
2023-02-18T14:08:35.003Z,15.20
2023-02-18T14:11:35.443Z,15.20
2023-02-18T14:14:38.687Z,15.10
2023-02-18T14:17:20.440Z,15.20
2023-02-18T14:20:02.416Z,15.20
2023-02-18T14:22:44.917Z,15.10
2023-02-18T14:25:39.099Z,15.10
2023-02-18T14:28:55.518Z,15.10
2023-02-18T14:31:47.661Z,15.10
2023-02-18T14:34:36.664Z,15.10
2023-02-18T14:37:25.819Z,15.10
2023-02-18T14:40:15.869Z,15.10
2023-02-18T14:43:13.021Z,15.10
2023-02-18T14:46:09.235Z,15.10
2023-02-18T14:48:53.892Z,15.00
2023-02-18T14:51:29.874Z,15.00
2023-02-18T14:54:07.799Z,15.10
2023-02-18T14:56:59.697Z,15.00
2023-02-18T14:59:37.188Z,15.00
2023-02-18T15:02:27.700Z,15.00
2023-02-18T15:05:19.089Z,15.00
2023-02-18T15:08:01.836Z,15.00
2023-02-18T15:10:48.918Z,15.00
2023-02-18T15:13:31.100Z,15.00
2023-02-18T15:16:08.178Z,14.90
2023-02-18T15:18:55.902Z,14.90
2023-02-18T15:21:31.470Z,14.90
2023-02-18T15:24:19.009Z,14.90
2023-02-18T15:26:52.733Z,14.90
2023-02-18T15:29:36.667Z,14.90
2023-02-18T15:32:21.778Z,14.90
2023-02-18T15:34:58.330Z,14.90
2023-02-18T15:37:32.088Z,14.90
2023-02-18T15:40:05.063Z,14.90
2023-02-18T15:42:40.646Z,14.90
2023-02-18T15:45:33.518Z,14.90
2023-02-18T15:48:06.751Z,14.90
2023-02-18T15:50:51.164Z,14.90
2023-02-18T15:53:25.400Z,14.90
2023-02-18T15:55:58.129Z,14.90
2023-02-18T15:58:33.204Z,14.90
2023-02-18T16:01:08.218Z,14.90
2023-02-18T16:03:40.957Z,14.90
2023-02-18T16:06:24.809Z,14.90
2023-02-18T16:09:22.745Z,14.90
2023-02-18T16:12:02.494Z,14.90
2023-02-18T16:14:40.182Z,14.90
2023-02-18T16:17:20.576Z,14.80
2023-02-18T16:20:04.271Z,14.80
2023-02-18T16:22:43.445Z,14.80
2023-02-18T16:25:21.764Z,14.80
2023-02-18T16:28:00.324Z,14.80
2023-02-18T16:30:36.159Z,14.80
2023-02-18T16:33:15.282Z,14.80
2023-02-18T16:35:50.370Z,14.80
2023-02-18T16:38:25.812Z,14.70
2023-02-18T16:40:58.673Z,14.70
2023-02-18T16:43:33.352Z,14.70
2023-02-18T16:46:18.245Z,14.70
2023-02-18T16:48:55.182Z,14.70
2023-02-18T16:51:35.589Z,14.70
2023-02-18T16:54:13.635Z,14.70
2023-02-18T16:56:58.564Z,14.70
2023-02-18T16:59:31.719Z,14.60
2023-02-18T17:02:04.566Z,14.60
2023-02-18T17:04:38.497Z,14.60
2023-02-18T17:07:12.454Z,14.60
2023-02-18T17:09:45.126Z,14.60
2023-02-18T17:12:23.866Z,14.60
2023-02-18T17:14:56.689Z,14.60
2023-02-18T17:17:30.360Z,14.60
2023-02-18T17:20:03.736Z,14.60
2023-02-18T17:22:39.472Z,14.60
2023-02-18T17:25:23.430Z,14.60
2023-02-18T17:27:56.298Z,14.60
2023-02-18T17:30:30.801Z,14.50
2023-02-18T17:33:04.474Z,14.50
2023-02-18T17:38:34.808Z,14.50
2023-02-18T17:41:08.285Z,14.50
2023-02-18T17:43:41.391Z,14.50
2023-02-18T17:46:16.322Z,14.50
2023-02-18T17:48:48.986Z,14.50
2023-02-18T17:51:27.654Z,14.50
2023-02-18T17:54:00.302Z,14.50
2023-02-18T17:56:35.853Z,14.50
2023-02-18T17:59:08.555Z,14.50
2023-02-18T18:01:43.671Z,14.50
2023-02-18T18:04:19.583Z,14.50
2023-02-18T18:07:11.841Z,14.50
2023-02-18T18:09:47.916Z,14.50
2023-02-18T18:12:22.051Z,14.50
2023-02-18T18:14:54.644Z,14.50
2023-02-18T18:17:27.336Z,14.50
2023-02-18T18:20:01.215Z,14.40
2023-02-18T18:22:33.820Z,14.40
2023-02-18T18:25:28.238Z,14.40
2023-02-18T18:28:04.842Z,14.40
2023-02-18T18:30:40.584Z,14.40
2023-02-18T18:33:24.573Z,14.40
2023-02-18T18:36:00.431Z,14.40
2023-02-18T18:38:36.527Z,14.40
2023-02-18T18:41:14.821Z,14.40
2023-02-18T18:43:48.018Z,14.40
2023-02-18T18:46:20.786Z,14.40
2023-02-18T18:48:54.725Z,14.40
2023-02-18T18:51:32.463Z,14.40
2023-02-18T18:54:05.315Z,14.40
2023-02-18T18:56:38.752Z,14.40
2023-02-18T18:59:11.549Z,14.40
2023-02-18T19:01:44.269Z,14.40
2023-02-18T19:04:17.098Z,14.40
2023-02-18T19:06:49.826Z,14.40
2023-02-18T19:09:23.575Z,14.40
2023-02-18T19:11:56.295Z,14.30
2023-02-18T19:14:29.366Z,14.30
2023-02-18T19:17:02.916Z,14.30
2023-02-18T19:19:38.470Z,14.30
2023-02-18T19:22:11.216Z,14.30
2023-02-18T19:24:43.906Z,14.30
2023-02-18T19:27:17.552Z,14.30
2023-02-18T19:29:54.560Z,14.30
2023-02-18T19:32:27.428Z,14.30
2023-02-18T19:35:00.679Z,14.20
2023-02-18T19:37:34.018Z,14.20
2023-02-18T19:40:08.983Z,14.20
2023-02-18T19:42:42.296Z,14.20
2023-02-18T19:45:19.910Z,14.10
2023-02-18T19:47:58.005Z,14.10
2023-02-18T19:50:42.194Z,14.10
2023-02-18T19:53:14.864Z,14.10
2023-02-18T19:55:58.000Z,14.10
2023-02-18T19:58:30.683Z,14.10
2023-02-18T20:01:04.040Z,14.10
2023-02-18T20:03:37.017Z,14.10
2023-02-18T20:06:21.023Z,14.10
2023-02-18T20:08:55.250Z,14.00
2023-02-18T20:11:31.232Z,14.10
2023-02-18T20:14:03.770Z,14.10
2023-02-18T20:16:37.298Z,14.10
2023-02-18T20:19:09.979Z,14.10
2023-02-18T20:21:42.673Z,14.10
2023-02-18T20:24:15.308Z,14.10
2023-02-18T20:26:48.328Z,14.10
2023-02-18T20:29:22.276Z,14.10
2023-02-18T20:31:55.057Z,14.10
2023-02-18T20:34:28.184Z,14.10
2023-02-18T20:37:01.867Z,14.10
2023-02-18T20:39:35.788Z,14.10
2023-02-18T20:42:16.366Z,14.10
2023-02-18T20:44:50.715Z,14.10
2023-02-18T20:47:23.434Z,14.10
2023-02-18T20:49:56.135Z,14.10
2023-02-18T20:52:28.717Z,14.20
2023-02-18T20:55:01.485Z,14.20
2023-02-18T20:57:34.055Z,14.20
2023-02-18T21:00:07.992Z,14.20
2023-02-18T21:02:40.630Z,14.20
2023-02-18T21:05:13.274Z,14.20
2023-02-18T21:07:45.855Z,14.20
2023-02-18T21:10:18.615Z,14.20
2023-02-18T21:12:51.199Z,14.20
2023-02-18T21:16:08.766Z,14.20
2023-02-18T21:19:12.134Z,14.20
2023-02-18T21:21:47.590Z,14.20
2023-02-18T21:24:29.638Z,14.20
2023-02-18T21:27:07.817Z,14.20
2023-02-18T21:29:44.349Z,14.20
2023-02-18T21:32:17.156Z,14.10
2023-02-18T21:34:50.057Z,14.20
2023-02-18T21:37:23.001Z,14.20
2023-02-18T21:39:59.030Z,14.20
2023-02-18T21:42:34.728Z,14.20
2023-02-18T21:45:07.933Z,14.10
2023-02-18T21:47:47.622Z,14.20
2023-02-18T21:50:20.913Z,14.20
2023-02-18T21:52:59.067Z,14.20
2023-02-18T21:58:23.388Z,14.10
2023-02-18T22:00:59.160Z,14.10
2023-02-18T22:03:33.418Z,14.10
2023-02-18T22:06:11.395Z,14.00
2023-02-18T22:08:47.725Z,14.00
2023-02-18T22:11:39.905Z,14.00
2023-02-18T22:14:35.100Z,14.00
2023-02-18T22:17:07.876Z,13.90
2023-02-18T22:19:40.687Z,13.90
2023-02-18T22:22:13.365Z,13.90
2023-02-18T22:24:46.105Z,13.90
2023-02-18T22:27:19.748Z,13.90
2023-02-18T22:29:52.531Z,13.80
2023-02-18T22:32:25.213Z,13.80
2023-02-18T22:34:57.946Z,13.80
2023-02-18T22:37:30.628Z,13.80
2023-02-18T22:40:03.398Z,13.80
2023-02-18T22:42:35.916Z,13.70
2023-02-18T22:45:08.728Z,13.70
2023-02-18T22:47:41.533Z,13.70
2023-02-18T22:50:14.070Z,13.70
2023-02-18T22:52:46.712Z,13.70
2023-02-18T22:55:19.201Z,13.70
2023-02-18T22:57:51.827Z,13.70
2023-02-18T23:00:25.955Z,13.70
2023-02-18T23:02:58.604Z,13.60
2023-02-18T23:05:35.216Z,13.60
2023-02-18T23:08:07.948Z,13.60
2023-02-18T23:10:40.594Z,13.60
2023-02-18T23:13:13.295Z,13.70
2023-02-18T23:15:57.191Z,13.60
2023-02-18T23:18:31.021Z,13.70
2023-02-18T23:21:18.390Z,13.60
2023-02-18T23:23:54.357Z,13.60
2023-02-18T23:26:27.016Z,13.60
2023-02-18T23:28:59.654Z,13.60
2023-02-18T23:31:32.568Z,13.60
2023-02-18T23:34:07.422Z,13.60
2023-02-18T23:36:40.308Z,13.60
2023-02-18T23:39:15.612Z,13.60
2023-02-18T23:41:48.560Z,13.60
2023-02-18T23:44:23.530Z,13.60
2023-02-18T23:46:56.367Z,13.50
2023-02-18T23:49:29.120Z,13.60
2023-02-18T23:52:01.898Z,13.50
2023-02-18T23:54:34.648Z,13.50
2023-02-18T23:57:07.250Z,13.50
2023-02-18T23:59:39.909Z,13.50
